Yapeyu, Argentina

8:08 AM -03 en Octubre 19, 2017 (GMT -0300)
Rubem Berta International | | Change Station

Alt 243 ft 29.78 °S, 57.03 °W | Updated 8 minutes ago

Nublado
Nublado
64 ° F
Sensación térmica 64 ° F
N
6
Viento Variable Viento desde SO

Hoy
Alta -- | Baja -- ° F
--% Posibilidad de precipitaciones
Ayer
Alta -- | Baja -- ° F
Precip. -- pul
Presión 29.98 pul
Visibilidad 6.2 Millas
Nubes Nubes dispersas 700 ft
Baja 4000 ft
Muy nublado 8300 ft
Punto de rocío 63 ° F
Humedad 94%
Precipitaciones 0.00 pul
Espesor de la nieve No disponible.
6:05 AM 6:59 PM
Creciente menguante, 0% visible
METAR SBUG 191100Z 22005KT 9999 SCT007 FEW040TCU BKN083 18/17 Q1015 R ETS
Presión 29.98 pul
Visibilidad 6.2 Millas
Nubes Nubes dispersas 700 ft
Baja 4000 ft
Muy nublado 8300 ft
Punto de rocío 63 ° F
Humedad 94%
Precipitaciones 0.00 pul
Espesor de la nieve No disponible.
6:05 AM 6:59 PM
Creciente menguante, 0% visible
METAR SBUG 191100Z 22005KT 9999 SCT007 FEW040TCU BKN083 18/17 Q1015 R ETS

Get Severe Weather Alerts

Thanks for signing up!

Be on the lookout for a verification email in your inbox.

You'll start receiving the daily forecast at 6 AM.

×

10-Day Weather Forecast

Almanac

Astronomía

Oct. 19, 2017 Salida Puesta
Hora real
Crepúsculo civil
Crepúsculo náutico
Crepúsculo astronómico
Luna
Horas de luz
Horas de luz
Tomorrow will be .
, % of the Moon is Illuminated

Extremos de hoy

Máximos del país Bajas del país

Community

WunderPhotos

Category 6

Welcome to Category 6. This is the collective home for Weather Underground's featured writeups by Dr. Jeff Masters (right), Bob Henson (left), Chris Burt, and other regular contributors.

Nearby

Calidad del aire

  Calidad del aire Índice AQ Contaminante
Not available.

Grosos de nieve

Estación Profundido Altura

Actividad de terremotos

Ciudad Distance Mag. Tiempo y dato
Magnitud mínima muestra es 2,5.

Temperaturas de aguas costeras

Lugar Temperatura

Stations

Estaciones meteorológicas cercanas

Ubicación de la estación Temp. Vientos helados Punto de rocío Humedad Viento Precip. Alt Actualizado Tipo